<?xml version="1.0" encoding="UTF-8"?><gpx creator="Wikiloc - http://www.wikiloc.com" version="1.1" xmlns="http://www.topografix.com/GPX/1/1" xmlns:xsi="http://www.w3.org/2001/XMLSchema-instance" xsi:schemaLocation="http://www.topografix.com/GPX/1/1 http://www.topografix.com/GPX/1/1/gpx.xsd"><wpt lat="40.107200" lon="-5.902944"><ele>0.0</ele><time>2009-09-13T09:55:46Z</time><name>Panel de Inicio</name><cmt></cmt><desc></desc></wpt><wpt lat="40.102312" lon="-5.899497"><ele>0.0</ele><time>2009-09-13T09:55:56Z</time><name>Castaño singular y Panel explicativo</name><cmt></cmt><desc></desc></wpt><wpt lat="40.099734" lon="-5.911735"><ele>0.0</ele><time>2009-09-13T09:56:14Z</time><name>Castaño singular y Panel explicativo</name><cmt></cmt><desc></desc></wpt><trk><name>SL-CC 35 'Ruta de los Castaños' (Casas del Castañar)</name><cmt></cmt><desc></desc><trkseg><trkpt lat="40.107120" lon="-5.902860"><ele>700.0</ele><time>2009-02-14T15:01:20Z</time></trkpt><trkpt lat="40.107130" lon="-5.902820"><ele>699.5</ele><time>2009-02-14T15:03:03Z</time></trkpt><trkpt lat="40.107120" lon="-5.902800"><ele>699.0</ele><time>2009-02-14T15:03:21Z</time></trkpt><trkpt lat="40.107120" lon="-5.902780"><ele>698.5</ele><time>2009-02-14T15:05:28Z</time></trkpt><trkpt lat="40.107110" lon="-5.902770"><ele>699.0</ele><time>2009-02-14T15:05:43Z</time></trkpt><trkpt lat="40.107110" lon="-5.902760"><ele>698.1</ele><time>2009-02-14T15:06:20Z</time></trkpt><trkpt lat="40.107050" lon="-5.902800"><ele>699.5</ele><time>2009-02-14T15:06:48Z</time></trkpt><trkpt lat="40.106900" lon="-5.902750"><ele>700.5</ele><time>2009-02-14T15:07:09Z</time></trkpt><trkpt lat="40.106810" lon="-5.902590"><ele>702.9</ele><time>2009-02-14T15:07:26Z</time></trkpt><trkpt lat="40.106800" lon="-5.902550"><ele>702.4</ele><time>2009-02-14T15:07:29Z</time></trkpt><trkpt lat="40.106780" lon="-5.902480"><ele>703.8</ele><time>2009-02-14T15:07:49Z</time></trkpt><trkpt lat="40.106800" lon="-5.902290"><ele>705.7</ele><time>2009-02-14T15:08:18Z</time></trkpt><trkpt lat="40.106810" lon="-5.902270"><ele>705.7</ele><time>2009-02-14T15:08:20Z</time></trkpt><trkpt lat="40.106810" lon="-5.902070"><ele>706.7</ele><time>2009-02-14T15:08:34Z</time></trkpt><trkpt lat="40.106850" lon="-5.901930"><ele>706.7</ele><time>2009-02-14T15:08:43Z</time></trkpt><trkpt lat="40.106840" lon="-5.901820"><ele>707.2</ele><time>2009-02-14T15:08:49Z</time></trkpt><trkpt lat="40.106850" lon="-5.901680"><ele>708.1</ele><time>2009-02-14T15:09:00Z</time></trkpt><trkpt lat="40.106830" lon="-5.901460"><ele>709.6</ele><time>2009-02-14T15:09:17Z</time></trkpt><trkpt lat="40.106810" lon="-5.901380"><ele>711.5</ele><time>2009-02-14T15:09:25Z</time></trkpt><trkpt lat="40.106810" lon="-5.901380"><ele>710.5</ele><time>2009-02-14T15:09:27Z</time></trkpt><trkpt lat="40.106730" lon="-5.901120"><ele>711.5</ele><time>2009-02-14T15:09:51Z</time></trkpt><trkpt lat="40.106680" lon="-5.900680"><ele>712.0</ele><time>2009-02-14T15:10:19Z</time></trkpt><trkpt lat="40.106700" lon="-5.900210"><ele>713.4</ele><time>2009-02-14T15:10:49Z</time></trkpt><trkpt lat="40.106710" lon="-5.899970"><ele>715.4</ele><time>2009-02-14T15:11:13Z</time></trkpt><trkpt lat="40.106730" lon="-5.899810"><ele>716.3</ele><time>2009-02-14T15:11:55Z</time></trkpt><trkpt lat="40.106760" lon="-5.899730"><ele>717.3</ele><time>2009-02-14T15:12:19Z</time></trkpt><trkpt lat="40.106800" lon="-5.899440"><ele>719.2</ele><time>2009-02-14T15:12:41Z</time></trkpt><trkpt lat="40.106800" lon="-5.899430"><ele>719.2</ele><time>2009-02-14T15:12:42Z</time></trkpt><trkpt lat="40.106710" lon="-5.899270"><ele>720.6</ele><time>2009-02-14T15:12:54Z</time></trkpt><trkpt lat="40.106690" lon="-5.899140"><ele>722.6</ele><time>2009-02-14T15:13:03Z</time></trkpt><trkpt lat="40.106570" lon="-5.898810"><ele>725.5</ele><time>2009-02-14T15:13:30Z</time></trkpt><trkpt lat="40.106410" lon="-5.898510"><ele>727.4</ele><time>2009-02-14T15:13:57Z</time></trkpt><trkpt lat="40.106320" lon="-5.898260"><ele>730.7</ele><time>2009-02-14T15:14:19Z</time></trkpt><trkpt lat="40.106330" lon="-5.898210"><ele>731.2</ele><time>2009-02-14T15:14:23Z</time></trkpt><trkpt lat="40.106330" lon="-5.898160"><ele>733.6</ele><time>2009-02-14T15:14:27Z</time></trkpt><trkpt lat="40.106330" lon="-5.898140"><ele>731.7</ele><time>2009-02-14T15:14:28Z</time></trkpt><trkpt lat="40.106290" lon="-5.898000"><ele>732.6</ele><time>2009-02-14T15:14:40Z</time></trkpt><trkpt lat="40.106260" lon="-5.897970"><ele>734.1</ele><time>2009-02-14T15:14:43Z</time></trkpt><trkpt lat="40.106150" lon="-5.897880"><ele>737.0</ele><time>2009-02-14T15:14:59Z</time></trkpt><trkpt lat="40.106100" lon="-5.897850"><ele>738.0</ele><time>2009-02-14T15:15:25Z</time></trkpt><trkpt lat="40.106090" lon="-5.897850"><ele>736.5</ele><time>2009-02-14T15:15:28Z</time></trkpt><trkpt lat="40.105970" lon="-5.897720"><ele>739.9</ele><time>2009-02-14T15:15:48Z</time></trkpt><trkpt lat="40.105910" lon="-5.897580"><ele>740.8</ele><time>2009-02-14T15:16:03Z</time></trkpt><trkpt lat="40.105730" lon="-5.897360"><ele>743.7</ele><time>2009-02-14T15:16:32Z</time></trkpt><trkpt lat="40.105600" lon="-5.897480"><ele>746.1</ele><time>2009-02-14T15:16:55Z</time></trkpt><trkpt lat="40.105510" lon="-5.897620"><ele>749.5</ele><time>2009-02-14T15:17:16Z</time></trkpt><trkpt lat="40.105420" lon="-5.897760"><ele>751.9</ele><time>2009-02-14T15:17:42Z</time></trkpt><trkpt lat="40.105350" lon="-5.897840"><ele>752.9</ele><time>2009-02-14T15:17:53Z</time></trkpt><trkpt lat="40.105130" lon="-5.897990"><ele>753.8</ele><time>2009-02-14T15:18:16Z</time></trkpt><trkpt lat="40.104800" lon="-5.898020"><ele>757.2</ele><time>2009-02-14T15:18:44Z</time></trkpt><trkpt lat="40.104570" lon="-5.898020"><ele>757.6</ele><time>2009-02-14T15:19:12Z</time></trkpt><trkpt lat="40.104560" lon="-5.898030"><ele>757.2</ele><time>2009-02-14T15:19:14Z</time></trkpt><trkpt lat="40.104420" lon="-5.898140"><ele>760.0</ele><time>2009-02-14T15:19:29Z</time></trkpt><trkpt lat="40.104250" lon="-5.898270"><ele>762.5</ele><time>2009-02-14T15:19:49Z</time></trkpt><trkpt lat="40.104050" lon="-5.898390"><ele>765.8</ele><time>2009-02-14T15:20:11Z</time></trkpt><trkpt lat="40.104010" lon="-5.898400"><ele>766.8</ele><time>2009-02-14T15:20:16Z</time></trkpt><trkpt lat="40.103900" lon="-5.898420"><ele>768.2</ele><time>2009-02-14T15:20:30Z</time></trkpt><trkpt lat="40.103870" lon="-5.898390"><ele>769.2</ele><time>2009-02-14T15:20:45Z</time></trkpt><trkpt lat="40.103820" lon="-5.898350"><ele>769.7</ele><time>2009-02-14T15:21:04Z</time></trkpt><trkpt lat="40.103810" lon="-5.898340"><ele>769.2</ele><time>2009-02-14T15:21:05Z</time></trkpt><trkpt lat="40.103710" lon="-5.898280"><ele>774.0</ele><time>2009-02-14T15:21:18Z</time></trkpt><trkpt lat="40.103660" lon="-5.898240"><ele>773.5</ele><time>2009-02-14T15:21:24Z</time></trkpt><trkpt lat="40.103650" lon="-5.898240"><ele>774.0</ele><time>2009-02-14T15:21:25Z</time></trkpt><trkpt lat="40.103470" lon="-5.898180"><ele>776.4</ele><time>2009-02-14T15:21:46Z</time></trkpt><trkpt lat="40.103380" lon="-5.898030"><ele>777.8</ele><time>2009-02-14T15:22:06Z</time></trkpt><trkpt lat="40.103290" lon="-5.897880"><ele>781.2</ele><time>2009-02-14T15:22:23Z</time></trkpt><trkpt lat="40.103190" lon="-5.897890"><ele>783.1</ele><time>2009-02-14T15:22:46Z</time></trkpt><trkpt lat="40.103190" lon="-5.897880"><ele>783.6</ele><time>2009-02-14T15:23:25Z</time></trkpt><trkpt lat="40.103160" lon="-5.897910"><ele>784.1</ele><time>2009-02-14T15:23:54Z</time></trkpt><trkpt lat="40.103130" lon="-5.897940"><ele>783.6</ele><time>2009-02-14T15:23:58Z</time></trkpt><trkpt lat="40.103060" lon="-5.897950"><ele>784.1</ele><time>2009-02-14T15:24:03Z</time></trkpt><trkpt lat="40.102950" lon="-5.898110"><ele>787.9</ele><time>2009-02-14T15:24:25Z</time></trkpt><trkpt lat="40.102830" lon="-5.898190"><ele>791.3</ele><time>2009-02-14T15:24:49Z</time></trkpt><trkpt lat="40.102730" lon="-5.898220"><ele>793.2</ele><time>2009-02-14T15:25:10Z</time></trkpt><trkpt lat="40.102670" lon="-5.898270"><ele>795.2</ele><time>2009-02-14T15:25:30Z</time></trkpt><trkpt lat="40.102570" lon="-5.898340"><ele>798.0</ele><time>2009-02-14T15:25:45Z</time></trkpt><trkpt lat="40.102450" lon="-5.898430"><ele>801.4</ele><time>2009-02-14T15:26:09Z</time></trkpt><trkpt lat="40.102430" lon="-5.898530"><ele>802.8</ele><time>2009-02-14T15:26:27Z</time></trkpt><trkpt lat="40.102400" lon="-5.898690"><ele>804.8</ele><time>2009-02-14T15:26:49Z</time></trkpt><trkpt lat="40.102370" lon="-5.898780"><ele>805.3</ele><time>2009-02-14T15:27:01Z</time></trkpt><trkpt lat="40.102340" lon="-5.898930"><ele>806.7</ele><time>2009-02-14T15:27:22Z</time></trkpt><trkpt lat="40.102330" lon="-5.899040"><ele>808.1</ele><time>2009-02-14T15:27:57Z</time></trkpt><trkpt lat="40.102350" lon="-5.899230"><ele>811.5</ele><time>2009-02-14T15:28:17Z</time></trkpt><trkpt lat="40.102320" lon="-5.899360"><ele>812.4</ele><time>2009-02-14T15:28:36Z</time></trkpt><trkpt lat="40.102310" lon="-5.899370"><ele>812.0</ele><time>2009-02-14T15:28:45Z</time></trkpt><trkpt lat="40.102320" lon="-5.899400"><ele>810.5</ele><time>2009-02-14T15:30:15Z</time></trkpt><trkpt lat="40.102310" lon="-5.899460"><ele>812.0</ele><time>2009-02-14T15:30:37Z</time></trkpt><trkpt lat="40.102250" lon="-5.899540"><ele>813.4</ele><time>2009-02-14T15:31:08Z</time></trkpt><trkpt lat="40.102240" lon="-5.899640"><ele>815.3</ele><time>2009-02-14T15:31:34Z</time></trkpt><trkpt lat="40.102200" lon="-5.899690"><ele>816.8</ele><time>2009-02-14T15:31:59Z</time></trkpt><trkpt lat="40.102160" lon="-5.899780"><ele>816.3</ele><time>2009-02-14T15:32:25Z</time></trkpt><trkpt lat="40.102140" lon="-5.899920"><ele>817.3</ele><time>2009-02-14T15:32:46Z</time></trkpt><trkpt lat="40.102190" lon="-5.900050"><ele>820.6</ele><time>2009-02-14T15:33:08Z</time></trkpt><trkpt lat="40.102190" lon="-5.900050"><ele>820.6</ele><time>2009-02-14T15:33:09Z</time></trkpt><trkpt lat="40.102190" lon="-5.900080"><ele>817.3</ele><time>2009-02-14T15:33:16Z</time></trkpt><trkpt lat="40.102180" lon="-5.900100"><ele>821.6</ele><time>2009-02-14T15:33:19Z</time></trkpt><trkpt lat="40.102180" lon="-5.900100"><ele>817.7</ele><time>2009-02-14T15:33:21Z</time></trkpt><trkpt lat="40.102180" lon="-5.900110"><ele>822.1</ele><time>2009-02-14T15:33:22Z</time></trkpt><trkpt lat="40.102140" lon="-5.900200"><ele>822.1</ele><time>2009-02-14T15:33:50Z</time></trkpt><trkpt lat="40.102170" lon="-5.900330"><ele>824.0</ele><time>2009-02-14T15:34:13Z</time></trkpt><trkpt lat="40.102210" lon="-5.900500"><ele>827.8</ele><time>2009-02-14T15:34:38Z</time></trkpt><trkpt lat="40.102140" lon="-5.900540"><ele>829.3</ele><time>2009-02-14T15:35:00Z</time></trkpt><trkpt lat="40.102110" lon="-5.900620"><ele>832.2</ele><time>2009-02-14T15:35:14Z</time></trkpt><trkpt lat="40.102000" lon="-5.900590"><ele>834.6</ele><time>2009-02-14T15:35:35Z</time></trkpt><trkpt lat="40.101920" lon="-5.900630"><ele>837.0</ele><time>2009-02-14T15:35:59Z</time></trkpt><trkpt lat="40.101900" lon="-5.900730"><ele>839.4</ele><time>2009-02-14T15:36:23Z</time></trkpt><trkpt lat="40.101870" lon="-5.900770"><ele>840.8</ele><time>2009-02-14T15:36:34Z</time></trkpt><trkpt lat="40.101810" lon="-5.900850"><ele>844.2</ele><time>2009-02-14T15:36:57Z</time></trkpt><trkpt lat="40.101720" lon="-5.900830"><ele>843.7</ele><time>2009-02-14T15:37:23Z</time></trkpt><trkpt lat="40.101680" lon="-5.900840"><ele>844.7</ele><time>2009-02-14T15:38:04Z</time></trkpt><trkpt lat="40.101620" lon="-5.900870"><ele>848.0</ele><time>2009-02-14T15:38:13Z</time></trkpt><trkpt lat="40.101620" lon="-5.900870"><ele>848.0</ele><time>2009-02-14T15:38:14Z</time></trkpt><trkpt lat="40.101480" lon="-5.900820"><ele>850.9</ele><time>2009-02-14T15:38:35Z</time></trkpt><trkpt lat="40.101400" lon="-5.900800"><ele>850.4</ele><time>2009-02-14T15:38:55Z</time></trkpt><trkpt lat="40.101380" lon="-5.900780"><ele>850.4</ele><time>2009-02-14T15:39:02Z</time></trkpt><trkpt lat="40.101280" lon="-5.900660"><ele>853.3</ele><time>2009-02-14T15:39:21Z</time></trkpt><trkpt lat="40.101200" lon="-5.900550"><ele>855.7</ele><time>2009-02-14T15:39:42Z</time></trkpt><trkpt lat="40.101130" lon="-5.900570"><ele>859.1</ele><time>2009-02-14T15:40:07Z</time></trkpt><trkpt lat="40.101060" lon="-5.900500"><ele>860.5</ele><time>2009-02-14T15:40:35Z</time></trkpt><trkpt lat="40.101010" lon="-5.900520"><ele>863.4</ele><time>2009-02-14T15:40:53Z</time></trkpt><trkpt lat="40.100920" lon="-5.900480"><ele>866.8</ele><time>2009-02-14T15:41:17Z</time></trkpt><trkpt lat="40.100850" lon="-5.900370"><ele>868.7</ele><time>2009-02-14T15:41:39Z</time></trkpt><trkpt lat="40.100780" lon="-5.900300"><ele>871.1</ele><time>2009-02-14T15:42:02Z</time></trkpt><trkpt lat="40.100700" lon="-5.900240"><ele>874.5</ele><time>2009-02-14T15:42:23Z</time></trkpt><trkpt lat="40.100630" lon="-5.900130"><ele>874.5</ele><time>2009-02-14T15:42:53Z</time></trkpt><trkpt lat="40.100560" lon="-5.900060"><ele>875.4</ele><time>2009-02-14T15:43:30Z</time></trkpt><trkpt lat="40.100460" lon="-5.899990"><ele>877.3</ele><time>2009-02-14T15:43:54Z</time></trkpt><trkpt lat="40.100320" lon="-5.899900"><ele>878.8</ele><time>2009-02-14T15:44:16Z</time></trkpt><trkpt lat="40.100380" lon="-5.900100"><ele>880.2</ele><time>2009-02-14T15:44:37Z</time></trkpt><trkpt lat="40.100440" lon="-5.900260"><ele>882.2</ele><time>2009-02-14T15:44:56Z</time></trkpt><trkpt lat="40.100450" lon="-5.900330"><ele>883.6</ele><time>2009-02-14T15:45:19Z</time></trkpt><trkpt lat="40.100500" lon="-5.900410"><ele>883.6</ele><time>2009-02-14T15:45:43Z</time></trkpt><trkpt lat="40.100550" lon="-5.900600"><ele>884.6</ele><time>2009-02-14T15:46:04Z</time></trkpt><trkpt lat="40.100550" lon="-5.900660"><ele>884.6</ele><time>2009-02-14T15:46:27Z</time></trkpt><trkpt lat="40.100600" lon="-5.900760"><ele>885.0</ele><time>2009-02-14T15:46:55Z</time></trkpt><trkpt lat="40.100630" lon="-5.900780"><ele>884.6</ele><time>2009-02-14T15:47:02Z</time></trkpt><trkpt lat="40.100680" lon="-5.900860"><ele>884.1</ele><time>2009-02-14T15:47:14Z</time></trkpt><trkpt lat="40.100880" lon="-5.901160"><ele>883.1</ele><time>2009-02-14T15:47:42Z</time></trkpt><trkpt lat="40.101000" lon="-5.901430"><ele>883.6</ele><time>2009-02-14T15:48:03Z</time></trkpt><trkpt lat="40.101080" lon="-5.901700"><ele>885.0</ele><time>2009-02-14T15:48:26Z</time></trkpt><trkpt lat="40.101090" lon="-5.901970"><ele>886.0</ele><time>2009-02-14T15:48:50Z</time></trkpt><trkpt lat="40.101080" lon="-5.902080"><ele>886.5</ele><time>2009-02-14T15:48:59Z</time></trkpt><trkpt lat="40.101060" lon="-5.902320"><ele>887.0</ele><time>2009-02-14T15:49:20Z</time></trkpt><trkpt lat="40.101050" lon="-5.902580"><ele>887.0</ele><time>2009-02-14T15:49:43Z</time></trkpt><trkpt lat="40.101050" lon="-5.902830"><ele>887.0</ele><time>2009-02-14T15:50:05Z</time></trkpt><trkpt lat="40.100990" lon="-5.903060"><ele>887.9</ele><time>2009-02-14T15:50:25Z</time></trkpt><trkpt lat="40.100870" lon="-5.903220"><ele>890.3</ele><time>2009-02-14T15:50:45Z</time></trkpt><trkpt lat="40.100820" lon="-5.903340"><ele>889.8</ele><time>2009-02-14T15:51:06Z</time></trkpt><trkpt lat="40.100820" lon="-5.903350"><ele>889.8</ele><time>2009-02-14T15:51:07Z</time></trkpt><trkpt lat="40.100770" lon="-5.903460"><ele>890.8</ele><time>2009-02-14T15:51:31Z</time></trkpt><trkpt lat="40.100760" lon="-5.903550"><ele>890.3</ele><time>2009-02-14T15:51:48Z</time></trkpt><trkpt lat="40.100720" lon="-5.903750"><ele>893.7</ele><time>2009-02-14T15:52:07Z</time></trkpt><trkpt lat="40.100710" lon="-5.903790"><ele>892.7</ele><time>2009-02-14T15:52:11Z</time></trkpt><trkpt lat="40.100660" lon="-5.904030"><ele>893.2</ele><time>2009-02-14T15:52:32Z</time></trkpt><trkpt lat="40.100650" lon="-5.904070"><ele>893.2</ele><time>2009-02-14T15:53:06Z</time></trkpt><trkpt lat="40.100550" lon="-5.904170"><ele>893.2</ele><time>2009-02-14T15:53:27Z</time></trkpt><trkpt lat="40.100350" lon="-5.904320"><ele>894.6</ele><time>2009-02-14T15:53:53Z</time></trkpt><trkpt lat="40.100290" lon="-5.904470"><ele>898.0</ele><time>2009-02-14T15:54:08Z</time></trkpt><trkpt lat="40.100290" lon="-5.904510"><ele>898.5</ele><time>2009-02-14T15:54:13Z</time></trkpt><trkpt lat="40.100230" lon="-5.904720"><ele>900.4</ele><time>2009-02-14T15:54:33Z</time></trkpt><trkpt lat="40.100150" lon="-5.904870"><ele>902.3</ele><time>2009-02-14T15:54:54Z</time></trkpt><trkpt lat="40.100010" lon="-5.905040"><ele>903.8</ele><time>2009-02-14T15:55:16Z</time></trkpt><trkpt lat="40.099970" lon="-5.905160"><ele>904.3</ele><time>2009-02-14T15:55:38Z</time></trkpt><trkpt lat="40.099980" lon="-5.905280"><ele>903.3</ele><time>2009-02-14T15:55:57Z</time></trkpt><trkpt lat="40.100070" lon="-5.905490"><ele>904.3</ele><time>2009-02-14T15:56:17Z</time></trkpt><trkpt lat="40.100140" lon="-5.905730"><ele>903.8</ele><time>2009-02-14T15:56:41Z</time></trkpt><trkpt lat="40.100170" lon="-5.905950"><ele>904.7</ele><time>2009-02-14T15:57:01Z</time></trkpt><trkpt lat="40.100150" lon="-5.906210"><ele>904.7</ele><time>2009-02-14T15:57:25Z</time></trkpt><trkpt lat="40.100080" lon="-5.906380"><ele>905.7</ele><time>2009-02-14T15:57:44Z</time></trkpt><trkpt lat="40.099940" lon="-5.906500"><ele>905.7</ele><time>2009-02-14T15:58:07Z</time></trkpt><trkpt lat="40.099910" lon="-5.906510"><ele>906.2</ele><time>2009-02-14T15:58:10Z</time></trkpt><trkpt lat="40.099660" lon="-5.906490"><ele>906.2</ele><time>2009-02-14T15:58:34Z</time></trkpt><trkpt lat="40.099400" lon="-5.906530"><ele>908.1</ele><time>2009-02-14T15:59:00Z</time></trkpt><trkpt lat="40.099390" lon="-5.906540"><ele>908.1</ele><time>2009-02-14T15:59:01Z</time></trkpt><trkpt lat="40.099370" lon="-5.906560"><ele>908.1</ele><time>2009-02-14T15:59:03Z</time></trkpt><trkpt lat="40.099340" lon="-5.906590"><ele>909.1</ele><time>2009-02-14T15:59:08Z</time></trkpt><trkpt lat="40.099190" lon="-5.906810"><ele>911.5</ele><time>2009-02-14T15:59:30Z</time></trkpt><trkpt lat="40.099100" lon="-5.906940"><ele>912.4</ele><time>2009-02-14T15:59:46Z</time></trkpt><trkpt lat="40.098960" lon="-5.907050"><ele>913.9</ele><time>2009-02-14T16:00:04Z</time></trkpt><trkpt lat="40.098860" lon="-5.907170"><ele>915.8</ele><time>2009-02-14T16:00:20Z</time></trkpt><trkpt lat="40.098710" lon="-5.907270"><ele>917.7</ele><time>2009-02-14T16:00:36Z</time></trkpt><trkpt lat="40.098700" lon="-5.907280"><ele>918.2</ele><time>2009-02-14T16:00:38Z</time></trkpt><trkpt lat="40.098600" lon="-5.907440"><ele>920.1</ele><time>2009-02-14T16:00:58Z</time></trkpt><trkpt lat="40.098490" lon="-5.907570"><ele>921.1</ele><time>2009-02-14T16:01:14Z</time></trkpt><trkpt lat="40.098430" lon="-5.907700"><ele>921.1</ele><time>2009-02-14T16:01:35Z</time></trkpt><trkpt lat="40.098400" lon="-5.907810"><ele>922.1</ele><time>2009-02-14T16:02:05Z</time></trkpt><trkpt lat="40.098350" lon="-5.907930"><ele>922.1</ele><time>2009-02-14T16:02:25Z</time></trkpt><trkpt lat="40.098340" lon="-5.908050"><ele>921.6</ele><time>2009-02-14T16:02:44Z</time></trkpt><trkpt lat="40.098340" lon="-5.908170"><ele>920.1</ele><time>2009-02-14T16:02:56Z</time></trkpt><trkpt lat="40.098360" lon="-5.908360"><ele>918.2</ele><time>2009-02-14T16:03:21Z</time></trkpt><trkpt lat="40.098370" lon="-5.908410"><ele>917.7</ele><time>2009-02-14T16:03:28Z</time></trkpt><trkpt lat="40.098410" lon="-5.908590"><ele>915.3</ele><time>2009-02-14T16:03:45Z</time></trkpt><trkpt lat="40.098470" lon="-5.908770"><ele>912.0</ele><time>2009-02-14T16:04:02Z</time></trkpt><trkpt lat="40.098540" lon="-5.909000"><ele>910.0</ele><time>2009-02-14T16:04:22Z</time></trkpt><trkpt lat="40.098560" lon="-5.909240"><ele>907.6</ele><time>2009-02-14T16:04:41Z</time></trkpt><trkpt lat="40.098580" lon="-5.909260"><ele>911.5</ele><time>2009-02-14T16:05:03Z</time></trkpt><trkpt lat="40.098580" lon="-5.909260"><ele>907.1</ele><time>2009-02-14T16:05:05Z</time></trkpt><trkpt lat="40.098600" lon="-5.909260"><ele>912.0</ele><time>2009-02-14T16:05:13Z</time></trkpt><trkpt lat="40.098600" lon="-5.909260"><ele>908.1</ele><time>2009-02-14T16:05:14Z</time></trkpt><trkpt lat="40.098610" lon="-5.909250"><ele>905.2</ele><time>2009-02-14T16:05:17Z</time></trkpt><trkpt lat="40.098610" lon="-5.909250"><ele>910.5</ele><time>2009-02-14T16:05:18Z</time></trkpt><trkpt lat="40.098610" lon="-5.909250"><ele>906.7</ele><time>2009-02-14T16:05:19Z</time></trkpt><trkpt lat="40.098610" lon="-5.909250"><ele>910.0</ele><time>2009-02-14T16:05:23Z</time></trkpt><trkpt lat="40.098610" lon="-5.909250"><ele>904.7</ele><time>2009-02-14T16:05:24Z</time></trkpt><trkpt lat="40.098610" lon="-5.909250"><ele>908.6</ele><time>2009-02-14T16:05:25Z</time></trkpt><trkpt lat="40.098630" lon="-5.909260"><ele>907.6</ele><time>2009-02-14T16:05:30Z</time></trkpt><trkpt lat="40.098650" lon="-5.909240"><ele>908.1</ele><time>2009-02-14T16:05:57Z</time></trkpt><trkpt lat="40.098660" lon="-5.909420"><ele>905.7</ele><time>2009-02-14T16:06:15Z</time></trkpt><trkpt lat="40.098650" lon="-5.909470"><ele>904.7</ele><time>2009-02-14T16:06:41Z</time></trkpt><trkpt lat="40.098620" lon="-5.909660"><ele>902.3</ele><time>2009-02-14T16:06:57Z</time></trkpt><trkpt lat="40.098620" lon="-5.909750"><ele>901.8</ele><time>2009-02-14T16:07:02Z</time></trkpt><trkpt lat="40.098620" lon="-5.909800"><ele>901.8</ele><time>2009-02-14T16:07:06Z</time></trkpt><trkpt lat="40.098610" lon="-5.909860"><ele>900.9</ele><time>2009-02-14T16:07:11Z</time></trkpt><trkpt lat="40.098580" lon="-5.909970"><ele>900.9</ele><time>2009-02-14T16:07:19Z</time></trkpt><trkpt lat="40.098600" lon="-5.910110"><ele>899.9</ele><time>2009-02-14T16:07:28Z</time></trkpt><trkpt lat="40.098720" lon="-5.910280"><ele>896.6</ele><time>2009-02-14T16:07:45Z</time></trkpt><trkpt lat="40.098770" lon="-5.910300"><ele>895.6</ele><time>2009-02-14T16:07:51Z</time></trkpt><trkpt lat="40.098870" lon="-5.910330"><ele>893.2</ele><time>2009-02-14T16:08:00Z</time></trkpt><trkpt lat="40.099040" lon="-5.910470"><ele>890.8</ele><time>2009-02-14T16:08:22Z</time></trkpt><trkpt lat="40.099210" lon="-5.910680"><ele>888.4</ele><time>2009-02-14T16:08:48Z</time></trkpt><trkpt lat="40.099300" lon="-5.910940"><ele>887.4</ele><time>2009-02-14T16:09:09Z</time></trkpt><trkpt lat="40.099360" lon="-5.911240"><ele>884.6</ele><time>2009-02-14T16:09:28Z</time></trkpt><trkpt lat="40.099400" lon="-5.911370"><ele>883.6</ele><time>2009-02-14T16:09:45Z</time></trkpt><trkpt lat="40.099410" lon="-5.911390"><ele>883.1</ele><time>2009-02-14T16:09:47Z</time></trkpt><trkpt lat="40.099500" lon="-5.911550"><ele>879.7</ele><time>2009-02-14T16:10:02Z</time></trkpt><trkpt lat="40.099590" lon="-5.911640"><ele>877.3</ele><time>2009-02-14T16:10:14Z</time></trkpt><trkpt lat="40.099770" lon="-5.911710"><ele>875.9</ele><time>2009-02-14T16:10:31Z</time></trkpt><trkpt lat="40.099860" lon="-5.911740"><ele>876.4</ele><time>2009-02-14T16:10:48Z</time></trkpt><trkpt lat="40.099860" lon="-5.911730"><ele>875.4</ele><time>2009-02-14T16:11:55Z</time></trkpt><trkpt lat="40.099860" lon="-5.911730"><ele>877.8</ele><time>2009-02-14T16:12:04Z</time></trkpt><trkpt lat="40.099880" lon="-5.911730"><ele>877.3</ele><time>2009-02-14T16:12:52Z</time></trkpt><trkpt lat="40.099880" lon="-5.911730"><ele>877.8</ele><time>2009-02-14T16:13:11Z</time></trkpt><trkpt lat="40.099850" lon="-5.911680"><ele>877.8</ele><time>2009-02-14T16:13:42Z</time></trkpt><trkpt lat="40.099860" lon="-5.911720"><ele>877.8</ele><time>2009-02-14T16:13:58Z</time></trkpt><trkpt lat="40.099860" lon="-5.911700"><ele>877.3</ele><time>2009-02-14T16:14:02Z</time></trkpt><trkpt lat="40.099870" lon="-5.911660"><ele>877.3</ele><time>2009-02-14T16:14:05Z</time></trkpt><trkpt lat="40.099870" lon="-5.911630"><ele>875.4</ele><time>2009-02-14T16:14:07Z</time></trkpt><trkpt lat="40.099880" lon="-5.911520"><ele>872.1</ele><time>2009-02-14T16:14:19Z</time></trkpt><trkpt lat="40.099820" lon="-5.911350"><ele>870.6</ele><time>2009-02-14T16:14:52Z</time></trkpt><trkpt lat="40.099770" lon="-5.911230"><ele>869.2</ele><time>2009-02-14T16:15:14Z</time></trkpt><trkpt lat="40.099800" lon="-5.911170"><ele>868.2</ele><time>2009-02-14T16:15:31Z</time></trkpt><trkpt lat="40.099890" lon="-5.911190"><ele>870.1</ele><time>2009-02-14T16:15:54Z</time></trkpt><trkpt lat="40.099920" lon="-5.911130"><ele>866.3</ele><time>2009-02-14T16:16:14Z</time></trkpt><trkpt lat="40.099910" lon="-5.911090"><ele>869.2</ele><time>2009-02-14T16:16:22Z</time></trkpt><trkpt lat="40.099790" lon="-5.911050"><ele>867.2</ele><time>2009-02-14T16:16:59Z</time></trkpt><trkpt lat="40.099790" lon="-5.911020"><ele>867.7</ele><time>2009-02-14T16:17:04Z</time></trkpt><trkpt lat="40.099820" lon="-5.910980"><ele>867.7</ele><time>2009-02-14T16:17:23Z</time></trkpt><trkpt lat="40.099800" lon="-5.910920"><ele>866.3</ele><time>2009-02-14T16:17:48Z</time></trkpt><trkpt lat="40.099840" lon="-5.910880"><ele>863.9</ele><time>2009-02-14T16:18:13Z</time></trkpt><trkpt lat="40.099820" lon="-5.910720"><ele>862.4</ele><time>2009-02-14T16:18:30Z</time></trkpt><trkpt lat="40.099810" lon="-5.910570"><ele>860.5</ele><time>2009-02-14T16:18:47Z</time></trkpt><trkpt lat="40.099790" lon="-5.910450"><ele>860.0</ele><time>2009-02-14T16:19:07Z</time></trkpt><trkpt lat="40.099760" lon="-5.910310"><ele>858.6</ele><time>2009-02-14T16:19:30Z</time></trkpt><trkpt lat="40.099760" lon="-5.910240"><ele>856.2</ele><time>2009-02-14T16:19:39Z</time></trkpt><trkpt lat="40.099720" lon="-5.910050"><ele>853.8</ele><time>2009-02-14T16:20:02Z</time></trkpt><trkpt lat="40.099680" lon="-5.909900"><ele>852.3</ele><time>2009-02-14T16:20:23Z</time></trkpt><trkpt lat="40.099700" lon="-5.909890"><ele>854.8</ele><time>2009-02-14T16:20:26Z</time></trkpt><trkpt lat="40.099740" lon="-5.909870"><ele>853.3</ele><time>2009-02-14T16:20:29Z</time></trkpt><trkpt lat="40.099750" lon="-5.909870"><ele>853.8</ele><time>2009-02-14T16:20:30Z</time></trkpt><trkpt lat="40.099760" lon="-5.910000"><ele>852.3</ele><time>2009-02-14T16:20:49Z</time></trkpt><trkpt lat="40.099880" lon="-5.910080"><ele>849.0</ele><time>2009-02-14T16:21:10Z</time></trkpt><trkpt lat="40.099880" lon="-5.910080"><ele>853.3</ele><time>2009-02-14T16:21:11Z</time></trkpt><trkpt lat="40.099880" lon="-5.910060"><ele>849.4</ele><time>2009-02-14T16:21:12Z</time></trkpt><trkpt lat="40.099880" lon="-5.910000"><ele>852.8</ele><time>2009-02-14T16:21:19Z</time></trkpt><trkpt lat="40.099960" lon="-5.909900"><ele>849.4</ele><time>2009-02-14T16:21:35Z</time></trkpt><trkpt lat="40.100030" lon="-5.909860"><ele>849.9</ele><time>2009-02-14T16:21:47Z</time></trkpt><trkpt lat="40.100110" lon="-5.909850"><ele>847.1</ele><time>2009-02-14T16:21:55Z</time></trkpt><trkpt lat="40.100120" lon="-5.909850"><ele>850.9</ele><time>2009-02-14T16:21:56Z</time></trkpt><trkpt lat="40.100250" lon="-5.909830"><ele>849.0</ele><time>2009-02-14T16:22:09Z</time></trkpt><trkpt lat="40.100400" lon="-5.909570"><ele>849.0</ele><time>2009-02-14T16:22:34Z</time></trkpt><trkpt lat="40.100420" lon="-5.909540"><ele>846.6</ele><time>2009-02-14T16:22:37Z</time></trkpt><trkpt lat="40.100470" lon="-5.909370"><ele>846.6</ele><time>2009-02-14T16:22:53Z</time></trkpt><trkpt lat="40.100480" lon="-5.909300"><ele>845.6</ele><time>2009-02-14T16:22:58Z</time></trkpt><trkpt lat="40.100530" lon="-5.909140"><ele>843.2</ele><time>2009-02-14T16:23:11Z</time></trkpt><trkpt lat="40.100550" lon="-5.909050"><ele>842.3</ele><time>2009-02-14T16:23:18Z</time></trkpt><trkpt lat="40.100580" lon="-5.908750"><ele>840.3</ele><time>2009-02-14T16:23:44Z</time></trkpt><trkpt lat="40.100640" lon="-5.908690"><ele>839.8</ele><time>2009-02-14T16:24:10Z</time></trkpt><trkpt lat="40.100740" lon="-5.908680"><ele>836.5</ele><time>2009-02-14T16:24:25Z</time></trkpt><trkpt lat="40.100790" lon="-5.908740"><ele>835.5</ele><time>2009-02-14T16:24:33Z</time></trkpt><trkpt lat="40.101000" lon="-5.908940"><ele>832.7</ele><time>2009-02-14T16:25:01Z</time></trkpt><trkpt lat="40.101080" lon="-5.909030"><ele>829.8</ele><time>2009-02-14T16:25:11Z</time></trkpt><trkpt lat="40.101230" lon="-5.909110"><ele>829.3</ele><time>2009-02-14T16:25:39Z</time></trkpt><trkpt lat="40.101370" lon="-5.909210"><ele>828.3</ele><time>2009-02-14T16:26:03Z</time></trkpt><trkpt lat="40.101550" lon="-5.909310"><ele>824.9</ele><time>2009-02-14T16:26:23Z</time></trkpt><trkpt lat="40.101720" lon="-5.909280"><ele>822.1</ele><time>2009-02-14T16:26:48Z</time></trkpt><trkpt lat="40.101770" lon="-5.909320"><ele>822.1</ele><time>2009-02-14T16:27:11Z</time></trkpt><trkpt lat="40.101860" lon="-5.909290"><ele>819.2</ele><time>2009-02-14T16:27:31Z</time></trkpt><trkpt lat="40.101960" lon="-5.909250"><ele>820.2</ele><time>2009-02-14T16:27:48Z</time></trkpt><trkpt lat="40.102020" lon="-5.909210"><ele>819.7</ele><time>2009-02-14T16:27:55Z</time></trkpt><trkpt lat="40.102250" lon="-5.909140"><ele>816.8</ele><time>2009-02-14T16:28:17Z</time></trkpt><trkpt lat="40.102260" lon="-5.909130"><ele>816.8</ele><time>2009-02-14T16:28:18Z</time></trkpt><trkpt lat="40.102290" lon="-5.909130"><ele>815.8</ele><time>2009-02-14T16:28:22Z</time></trkpt><trkpt lat="40.102540" lon="-5.909070"><ele>812.9</ele><time>2009-02-14T16:28:47Z</time></trkpt><trkpt lat="40.102740" lon="-5.909060"><ele>810.0</ele><time>2009-02-14T16:29:09Z</time></trkpt><trkpt lat="40.102800" lon="-5.909030"><ele>809.1</ele><time>2009-02-14T16:29:15Z</time></trkpt><trkpt lat="40.102970" lon="-5.908810"><ele>806.7</ele><time>2009-02-14T16:29:38Z</time></trkpt><trkpt lat="40.103050" lon="-5.908720"><ele>804.8</ele><time>2009-02-14T16:29:47Z</time></trkpt><trkpt lat="40.103130" lon="-5.908660"><ele>803.8</ele><time>2009-02-14T16:29:54Z</time></trkpt><trkpt lat="40.103290" lon="-5.908500"><ele>799.5</ele><time>2009-02-14T16:30:14Z</time></trkpt><trkpt lat="40.103450" lon="-5.908230"><ele>798.5</ele><time>2009-02-14T16:30:39Z</time></trkpt><trkpt lat="40.103520" lon="-5.908070"><ele>797.5</ele><time>2009-02-14T16:30:55Z</time></trkpt><trkpt lat="40.103610" lon="-5.907860"><ele>795.6</ele><time>2009-02-14T16:31:16Z</time></trkpt><trkpt lat="40.103650" lon="-5.907720"><ele>794.7</ele><time>2009-02-14T16:31:42Z</time></trkpt><trkpt lat="40.103610" lon="-5.907710"><ele>795.2</ele><time>2009-02-14T16:32:07Z</time></trkpt><trkpt lat="40.103690" lon="-5.907650"><ele>795.2</ele><time>2009-02-14T16:32:44Z</time></trkpt><trkpt lat="40.103720" lon="-5.907520"><ele>793.2</ele><time>2009-02-14T16:33:05Z</time></trkpt><trkpt lat="40.103740" lon="-5.907440"><ele>791.3</ele><time>2009-02-14T16:33:13Z</time></trkpt><trkpt lat="40.103780" lon="-5.907210"><ele>787.9</ele><time>2009-02-14T16:33:34Z</time></trkpt><trkpt lat="40.103800" lon="-5.906970"><ele>784.6</ele><time>2009-02-14T16:33:51Z</time></trkpt><trkpt lat="40.103850" lon="-5.906690"><ele>783.6</ele><time>2009-02-14T16:34:14Z</time></trkpt><trkpt lat="40.103950" lon="-5.906460"><ele>783.6</ele><time>2009-02-14T16:34:37Z</time></trkpt><trkpt lat="40.104000" lon="-5.906410"><ele>782.2</ele><time>2009-02-14T16:34:59Z</time></trkpt><trkpt lat="40.104000" lon="-5.906370"><ele>781.2</ele><time>2009-02-14T16:35:24Z</time></trkpt><trkpt lat="40.104000" lon="-5.906370"><ele>784.6</ele><time>2009-02-14T16:35:38Z</time></trkpt><trkpt lat="40.104000" lon="-5.906370"><ele>781.7</ele><time>2009-02-14T16:35:42Z</time></trkpt><trkpt lat="40.104010" lon="-5.906350"><ele>783.1</ele><time>2009-02-14T16:36:00Z</time></trkpt><trkpt lat="40.104060" lon="-5.906310"><ele>780.7</ele><time>2009-02-14T16:36:05Z</time></trkpt><trkpt lat="40.104100" lon="-5.906280"><ele>779.3</ele><time>2009-02-14T16:36:08Z</time></trkpt><trkpt lat="40.104250" lon="-5.906130"><ele>775.9</ele><time>2009-02-14T16:36:18Z</time></trkpt><trkpt lat="40.104380" lon="-5.905910"><ele>773.0</ele><time>2009-02-14T16:36:40Z</time></trkpt><trkpt lat="40.104460" lon="-5.905760"><ele>770.1</ele><time>2009-02-14T16:36:53Z</time></trkpt><trkpt lat="40.104560" lon="-5.905590"><ele>767.3</ele><time>2009-02-14T16:37:08Z</time></trkpt><trkpt lat="40.104620" lon="-5.905510"><ele>764.9</ele><time>2009-02-14T16:37:15Z</time></trkpt><trkpt lat="40.104750" lon="-5.905340"><ele>762.5</ele><time>2009-02-14T16:37:34Z</time></trkpt><trkpt lat="40.104890" lon="-5.905210"><ele>759.1</ele><time>2009-02-14T16:37:50Z</time></trkpt><trkpt lat="40.104980" lon="-5.905070"><ele>754.3</ele><time>2009-02-14T16:38:04Z</time></trkpt><trkpt lat="40.104990" lon="-5.905060"><ele>757.6</ele><time>2009-02-14T16:38:05Z</time></trkpt><trkpt lat="40.104990" lon="-5.905050"><ele>761.0</ele><time>2009-02-14T16:38:06Z</time></trkpt><trkpt lat="40.105000" lon="-5.905040"><ele>756.7</ele><time>2009-02-14T16:38:07Z</time></trkpt><trkpt lat="40.105010" lon="-5.905020"><ele>753.3</ele><time>2009-02-14T16:38:10Z</time></trkpt><trkpt lat="40.105020" lon="-5.905010"><ele>760.5</ele><time>2009-02-14T16:38:11Z</time></trkpt><trkpt lat="40.105020" lon="-5.905000"><ele>756.2</ele><time>2009-02-14T16:38:12Z</time></trkpt><trkpt lat="40.105090" lon="-5.904800"><ele>752.9</ele><time>2009-02-14T16:38:27Z</time></trkpt><trkpt lat="40.105130" lon="-5.904670"><ele>750.4</ele><time>2009-02-14T16:38:38Z</time></trkpt><trkpt lat="40.105180" lon="-5.904410"><ele>747.1</ele><time>2009-02-14T16:38:57Z</time></trkpt><trkpt lat="40.105180" lon="-5.904040"><ele>746.6</ele><time>2009-02-14T16:39:23Z</time></trkpt><trkpt lat="40.105140" lon="-5.903890"><ele>746.1</ele><time>2009-02-14T16:39:34Z</time></trkpt><trkpt lat="40.105090" lon="-5.903570"><ele>746.1</ele><time>2009-02-14T16:39:59Z</time></trkpt><trkpt lat="40.105090" lon="-5.903540"><ele>745.1</ele><time>2009-02-14T16:40:02Z</time></trkpt><trkpt lat="40.105060" lon="-5.903370"><ele>742.8</ele><time>2009-02-14T16:40:14Z</time></trkpt><trkpt lat="40.104950" lon="-5.903110"><ele>739.9</ele><time>2009-02-14T16:40:36Z</time></trkpt><trkpt lat="40.104950" lon="-5.903090"><ele>739.4</ele><time>2009-02-14T16:40:37Z</time></trkpt><trkpt lat="40.104970" lon="-5.902680"><ele>738.0</ele><time>2009-02-14T16:41:03Z</time></trkpt><trkpt lat="40.104980" lon="-5.902600"><ele>738.0</ele><time>2009-02-14T16:41:08Z</time></trkpt><trkpt lat="40.105090" lon="-5.902240"><ele>737.0</ele><time>2009-02-14T16:41:33Z</time></trkpt><trkpt lat="40.105180" lon="-5.901940"><ele>735.1</ele><time>2009-02-14T16:41:57Z</time></trkpt><trkpt lat="40.105320" lon="-5.902000"><ele>734.1</ele><time>2009-02-14T16:42:17Z</time></trkpt><trkpt lat="40.105350" lon="-5.902020"><ele>733.1</ele><time>2009-02-14T16:42:21Z</time></trkpt><trkpt lat="40.105380" lon="-5.902070"><ele>732.2</ele><time>2009-02-14T16:42:25Z</time></trkpt><trkpt lat="40.105480" lon="-5.902280"><ele>729.3</ele><time>2009-02-14T16:42:42Z</time></trkpt><trkpt lat="40.105570" lon="-5.902740"><ele>725.9</ele><time>2009-02-14T16:43:14Z</time></trkpt><trkpt lat="40.105690" lon="-5.902980"><ele>722.6</ele><time>2009-02-14T16:43:34Z</time></trkpt><trkpt lat="40.105770" lon="-5.903190"><ele>722.1</ele><time>2009-02-14T16:43:54Z</time></trkpt><trkpt lat="40.105950" lon="-5.903360"><ele>719.2</ele><time>2009-02-14T16:44:16Z</time></trkpt><trkpt lat="40.106060" lon="-5.903420"><ele>717.8</ele><time>2009-02-14T16:44:42Z</time></trkpt><trkpt lat="40.106270" lon="-5.903470"><ele>713.9</ele><time>2009-02-14T16:45:03Z</time></trkpt><trkpt lat="40.106280" lon="-5.903470"><ele>713.9</ele><time>2009-02-14T16:45:04Z</time></trkpt><trkpt lat="40.106300" lon="-5.903460"><ele>712.0</ele><time>2009-02-14T16:45:06Z</time></trkpt><trkpt lat="40.106460" lon="-5.903460"><ele>708.6</ele><time>2009-02-14T16:45:19Z</time></trkpt><trkpt lat="40.106540" lon="-5.903450"><ele>707.7</ele><time>2009-02-14T16:45:26Z</time></trkpt><trkpt lat="40.106600" lon="-5.903440"><ele>705.7</ele><time>2009-02-14T16:45:45Z</time></trkpt><trkpt lat="40.106670" lon="-5.903390"><ele>704.8</ele><time>2009-02-14T16:46:23Z</time></trkpt><trkpt lat="40.106880" lon="-5.903190"><ele>701.9</ele><time>2009-02-14T16:46:46Z</time></trkpt><trkpt lat="40.106930" lon="-5.903190"><ele>701.4</ele><time>2009-02-14T16:47:04Z</time></trkpt><trkpt lat="40.106940" lon="-5.903210"><ele>701.4</ele><time>2009-02-14T16:47:07Z</time></trkpt><trkpt lat="40.107010" lon="-5.903420"><ele>698.5</ele><time>2009-02-14T16:47:27Z</time></trkpt><trkpt lat="40.107030" lon="-5.903490"><ele>697.6</ele><time>2009-02-14T16:47:32Z</time></trkpt><trkpt lat="40.107130" lon="-5.903720"><ele>695.6</ele><time>2009-02-14T16:47:50Z</time></trkpt><trkpt lat="40.107140" lon="-5.903750"><ele>695.6</ele><time>2009-02-14T16:47:53Z</time></trkpt><trkpt lat="40.107340" lon="-5.903880"><ele>693.2</ele><time>2009-02-14T16:48:15Z</time></trkpt><trkpt lat="40.107360" lon="-5.903820"><ele>693.7</ele><time>2009-02-14T16:48:20Z</time></trkpt><trkpt lat="40.107350" lon="-5.903740"><ele>695.6</ele><time>2009-02-14T16:48:32Z</time></trkpt><trkpt lat="40.107380" lon="-5.903610"><ele>694.7</ele><time>2009-02-14T16:48:40Z</time></trkpt><trkpt lat="40.107370" lon="-5.903210"><ele>696.6</ele><time>2009-02-14T16:49:06Z</time></trkpt><trkpt lat="40.107190" lon="-5.902910"><ele>697.1</ele><time>2009-02-14T16:49:34Z</time></trkpt><trkpt lat="40.107180" lon="-5.902870"><ele>700.0</ele><time>2009-02-14T16:49:55Z</time></trkpt></trkseg></trk></gpx>